Time;durP1;ratioP1;P1;durP2;ratioP2;P2;SDS_P1;SDS_P2;PMS_P1;PMS_P2;Temp;Humidity;BMP_temperature;BMP_pressure;BME280_temperature;BME280_humidity;BME280_pressure;Samples;Min_cycle;Max_cycle;Signal;HPM_P1;HPM_P2
2021/04/13 00:02:39;;;;;;;6.70;3.88;;;0.00;99.90;;;;;;5088147;28;20662;-74
2021/04/13 00:05:09;;;;;;;6.22;4.47;;;0.00;99.90;;;;;;5078386;28;20218;-74
2021/04/13 00:07:40;;;;;;;4.80;4.40;;;0.00;99.90;;;;;;5088533;28;20203;-74
2021/04/13 00:10:13;;;;;;;4.95;3.83;;;-0.10;99.90;;;;;;5088328;28;20544;-73
2021/04/13 00:12:39;;;;;;;4.72;4.22;;;-0.10;99.90;;;;;;5088703;28;20620;-75
2021/04/13 00:15:10;;;;;;;5.75;3.90;;;-0.10;99.90;;;;;;5089548;28;20230;-73
2021/04/13 00:17:40;;;;;;;4.60;4.20;;;-0.10;99.90;;;;;;5092785;28;20237;-73
2021/04/13 00:20:14;;;;;;;4.60;4.20;;;-0.20;99.90;;;;;;5092253;28;20245;-74
2021/04/13 00:22:41;;;;;;;4.20;3.80;;;-0.10;99.90;;;;;;5092614;28;20196;-74
2021/04/13 00:25:10;;;;;;;4.22;3.83;;;-0.10;99.90;;;;;;5092422;28;20204;-74
2021/04/13 00:27:36;;;;;;;3.90;3.60;;;-0.10;99.90;;;;;;5092335;28;20199;-74
2021/04/13 00:30:12;;;;;;;9.55;5.50;;;-0.10;99.90;;;;;;5092167;28;20200;-74
2021/04/13 00:32:46;;;;;;;4.72;4.22;;;-0.10;99.90;;;;;;5092370;28;20674;-74
2021/04/13 00:35:18;;;;;;;4.22;3.65;;;-0.10;99.90;;;;;;5092474;28;20439;-72
2021/04/13 00:37:44;;;;;;;5.45;4.13;;;0.00;99.90;;;;;;5092138;28;20400;-73
2021/04/13 00:40:22;;;;;;;6.68;4.30;;;-0.10;99.90;;;;;;5091744;28;20909;-73
2021/04/13 00:42:49;;;;;;;6.30;4.05;;;-0.10;99.90;;;;;;5092101;28;20200;-74
2021/04/13 00:45:19;;;;;;;5.13;4.22;;;-0.10;99.90;;;;;;5092267;28;20263;-74
2021/04/13 00:47:48;;;;;;;8.80;4.90;;;-0.10;99.90;;;;;;5091815;28;20208;-74
2021/04/13 00:50:25;;;;;;;4.25;3.85;;;-0.10;99.90;;;;;;5091632;28;20200;-73
2021/04/13 00:52:55;;;;;;;4.22;3.80;;;0.00;99.90;;;;;;5091998;28;20308;-74
2021/04/13 00:55:26;;;;;;;4.93;4.43;;;-0.10;99.90;;;;;;5091933;28;20779;-73
2021/04/13 00:58:01;;;;;;;4.70;3.90;;;-0.10;99.90;;;;;;5092045;28;20242;-74
2021/04/13 01:00:31;;;;;;;5.65;4.05;;;-0.10;99.90;;;;;;5091362;28;20207;-74
2021/04/13 01:03:00;;;;;;;5.43;4.93;;;0.00;99.90;;;;;;5091866;28;20200;-74
2021/04/13 01:05:35;;;;;;;4.78;4.30;;;0.00;99.90;;;;;;5091631;28;20292;-74
2021/04/13 01:08:19;;;;;;;4.80;4.38;;;0.10;99.90;;;;;;5091881;28;20622;-74
2021/04/13 01:10:45;;;;;;;4.78;4.05;;;0.10;99.90;;;;;;5091104;28;20215;-75
2021/04/13 01:13:13;;;;;;;4.72;4.32;;;0.20;99.90;;;;;;5091814;28;20210;-75
2021/04/13 01:15:42;;;;;;;5.22;4.72;;;0.30;99.90;;;;;;5091385;28;20595;-75
2021/04/13 01:18:13;;;;;;;5.03;4.35;;;0.30;99.90;;;;;;5091717;28;20228;-75
2021/04/13 01:20:47;;;;;;;6.25;4.55;;;0.40;99.90;;;;;;5092398;28;20204;-73
2021/04/13 01:23:18;;;;;;;5.03;4.28;;;0.40;99.90;;;;;;5091682;28;20201;-73
2021/04/13 01:25:46;;;;;;;7.22;5.30;;;0.50;99.90;;;;;;5091159;28;20199;-75
2021/04/13 01:28:14;;;;;;;4.40;4.00;;;0.50;99.90;;;;;;5091466;28;20227;-74
2021/04/13 01:30:45;;;;;;;5.10;4.60;;;0.50;99.90;;;;;;5090765;28;20199;-73
2021/04/13 01:33:16;;;;;;;4.97;4.35;;;0.50;99.90;;;;;;5091621;28;20598;-73
2021/04/13 01:35:48;;;;;;;4.53;4.13;;;0.50;99.90;;;;;;5091063;28;20215;-72
2021/04/13 01:38:20;;;;;;;7.00;5.03;;;0.40;99.90;;;;;;5091177;28;20246;-73
2021/04/13 01:41:02;;;;;;;4.72;4.30;;;0.40;99.90;;;;;;5090544;28;20245;-72
2021/04/13 01:43:31;;;;;;;6.63;4.90;;;0.30;99.90;;;;;;5091018;28;20225;-72
2021/04/13 01:45:58;;;;;;;5.60;4.97;;;0.30;99.90;;;;;;5091066;28;20200;-72
2021/04/13 01:48:27;;;;;;;6.47;5.57;;;0.20;99.90;;;;;;5090996;28;20234;-72
2021/04/13 01:50:59;;;;;;;5.80;4.00;;;0.20;99.90;;;;;;5090646;28;20210;-73
2021/04/13 01:53:26;;;;;;;4.63;4.22;;;0.20;99.90;;;;;;5090665;28;20207;-73
2021/04/13 01:55:55;;;;;;;5.05;4.30;;;0.20;99.90;;;;;;5090966;28;20706;-74
2021/04/13 01:58:27;;;;;;;5.30;4.80;;;0.10;99.90;;;;;;5090557;28;20227;-73
2021/04/13 02:00:59;;;;;;;4.93;4.18;;;0.10;99.90;;;;;;5090237;28;20249;-73
2021/04/13 02:03:33;;;;;;;5.93;4.00;;;0.00;99.90;;;;;;5090491;28;20211;-73
2021/04/13 02:06:04;;;;;;;5.95;4.80;;;0.00;99.90;;;;;;5090854;28;20203;-74
2021/04/13 02:08:37;;;;;;;5.32;4.60;;;-0.10;99.90;;;;;;5090189;28;20242;-73
2021/04/13 02:11:09;;;;;;;6.30;4.78;;;-0.10;99.90;;;;;;5089767;28;20203;-72
2021/04/13 02:13:40;;;;;;;4.68;4.22;;;-0.10;99.90;;;;;;5088109;28;20199;-74
2021/04/13 02:16:11;;;;;;;4.43;4.03;;;-0.10;99.90;;;;;;5088022;28;20195;-72
2021/04/13 02:18:42;;;;;;;5.20;4.70;;;-0.20;99.90;;;;;;5089895;28;20246;-72
2021/04/13 02:21:11;;;;;;;5.13;4.30;;;-0.20;99.90;;;;;;5089639;28;20204;-72
2021/04/13 02:23:43;;;;;;;5.60;4.32;;;-0.20;99.90;;;;;;5090034;28;20218;-73
2021/04/13 02:26:10;;;;;;;6.80;4.80;;;-0.30;99.90;;;;;;5090388;28;20615;-72
2021/04/13 02:28:37;;;;;;;6.30;5.70;;;-0.30;99.90;;;;;;5089792;28;20799;-73
2021/04/13 02:31:08;;;;;;;5.93;4.75;;;-0.30;99.90;;;;;;5089572;28;20693;-72
2021/04/13 02:33:36;;;;;;;4.68;4.28;;;-0.40;99.90;;;;;;5089752;28;20196;-73
2021/04/13 02:36:12;;;;;;;7.28;4.55;;;-0.40;99.90;;;;;;5090037;28;20203;-72
2021/04/13 02:38:40;;;;;;;9.05;4.93;;;-0.50;99.90;;;;;;5088790;28;20219;-72
2021/04/13 02:41:15;;;;;;;5.15;4.43;;;-0.50;99.90;;;;;;5089617;28;20678;-72
2021/04/13 02:43:46;;;;;;;5.05;4.55;;;-0.50;99.90;;;;;;5089927;28;20214;-72
2021/04/13 02:46:17;;;;;;;7.70;5.00;;;-0.40;99.90;;;;;;5089867;28;20687;-72
2021/04/13 02:48:51;;;;;;;5.50;5.00;;;-0.50;99.90;;;;;;5089480;28;20223;-72
2021/04/13 02:51:19;;;;;;;7.32;4.45;;;-0.50;99.90;;;;;;5090166;28;20298;-74
2021/04/13 02:53:49;;;;;;;5.20;4.55;;;-0.50;99.90;;;;;;5089796;28;20219;-73
2021/04/13 02:56:21;;;;;;;8.20;5.25;;;-0.50;99.90;;;;;;5089569;28;20211;-74
2021/04/13 02:58:58;;;;;;;7.75;4.53;;;-0.50;99.90;;;;;;5089332;28;20223;-73
2021/04/13 03:01:24;;;;;;;7.35;4.82;;;-0.50;99.90;;;;;;5088935;28;20203;-73
2021/04/13 03:03:52;;;;;;;7.10;5.90;;;-0.60;99.90;;;;;;5089324;28;20303;-74
2021/04/13 03:06:21;;;;;;;5.70;4.95;;;-0.60;99.90;;;;;;5089970;28;20670;-74
2021/04/13 03:08:48;;;;;;;6.80;5.38;;;-0.60;99.90;;;;;;5089532;28;20595;-73
2021/04/13 03:11:18;;;;;;;7.93;5.35;;;-0.60;99.90;;;;;;5089296;28;20203;-74
2021/04/13 03:13:46;;;;;;;5.95;5.35;;;-0.50;99.90;;;;;;5089015;28;20207;-74
2021/04/13 03:16:14;;;;;;;7.30;6.55;;;-0.50;99.90;;;;;;5089343;28;20199;-74
2021/04/13 03:18:43;;;;;;;6.50;5.32;;;-0.40;99.90;;;;;;5089016;28;20250;-73
2021/04/13 03:21:14;;;;;;;6.93;5.57;;;-0.30;99.90;;;;;;5089022;28;20203;-74
2021/04/13 03:23:43;;;;;;;6.25;5.28;;;-0.20;99.90;;;;;;5089287;28;20206;-73
2021/04/13 03:26:13;;;;;;;5.80;5.20;;;-0.10;99.90;;;;;;5089460;28;20788;-73
2021/04/13 03:28:44;;;;;;;8.10;5.28;;;-0.10;99.90;;;;;;5089313;28;20263;-73
2021/04/13 03:31:13;;;;;;;7.13;5.43;;;0.00;99.90;;;;;;5088904;28;20203;-73
2021/04/13 03:33:40;;;;;;;5.82;5.22;;;0.00;99.90;;;;;;5089268;28;20203;-73
2021/04/13 03:36:10;;;;;;;7.80;5.90;;;0.10;99.90;;;;;;5089163;28;20215;-74
2021/04/13 03:38:38;;;;;;;8.15;6.18;;;0.20;99.90;;;;;;5089735;28;20321;-73
2021/04/13 03:41:12;;;;;;;6.38;5.00;;;0.20;99.90;;;;;;5088771;28;20200;-72
2021/04/13 03:43:39;;;;;;;9.70;5.15;;;0.20;99.90;;;;;;5088847;28;20203;-72
2021/04/13 03:46:09;;;;;;;6.25;4.85;;;0.20;99.90;;;;;;5089295;28;20204;-74
2021/04/13 03:48:36;;;;;;;5.70;5.13;;;0.20;99.90;;;;;;5088643;28;20644;-72
2021/04/13 03:51:04;;;;;;;5.00;4.32;;;0.10;99.90;;;;;;5092682;28;20203;-72
2021/04/13 03:53:34;;;;;;;8.38;5.40;;;0.00;99.90;;;;;;5092937;28;20708;-73
2021/04/13 03:56:04;;;;;;;6.68;4.57;;;-0.10;99.90;;;;;;5093031;28;20253;-72
2021/04/13 03:58:41;;;;;;;7.13;5.60;;;-0.10;99.90;;;;;;5092862;28;20709;-73
2021/04/13 04:01:10;;;;;;;9.43;6.00;;;-0.10;99.90;;;;;;5092123;28;20749;-74
2021/04/13 04:03:40;;;;;;;6.93;5.75;;;-0.10;99.90;;;;;;5090493;28;20257;-75
2021/04/13 04:06:07;;;;;;;8.35;6.13;;;-0.10;99.90;;;;;;5092432;28;20199;-73
2021/04/13 04:08:39;;;;;;;7.03;5.78;;;-0.10;99.90;;;;;;5092483;28;20276;-73
2021/04/13 04:11:06;;;;;;;7.18;5.95;;;-0.30;99.90;;;;;;5092485;28;20556;-74
2021/04/13 04:13:35;;;;;;;8.40;5.65;;;-0.30;99.90;;;;;;5092385;28;20199;-73
2021/04/13 04:16:15;;;;;;;7.32;5.70;;;-0.30;99.90;;;;;;5092651;28;20203;-73
2021/04/13 04:18:43;;;;;;;7.05;5.60;;;-0.40;99.90;;;;;;5092201;28;20763;-72
2021/04/13 04:21:16;;;;;;;5.78;5.00;;;-0.40;99.90;;;;;;5092074;28;20208;-73
2021/04/13 04:23:43;;;;;;;6.57;4.70;;;-0.40;99.90;;;;;;5092129;28;20230;-73
2021/04/13 04:26:13;;;;;;;6.90;5.00;;;-0.40;99.90;;;;;;5092735;28;20203;-72
2021/04/13 04:28:42;;;;;;;8.60;6.13;;;-0.50;99.90;;;;;;5092289;28;20224;-72
2021/04/13 04:31:35;;;;;;;9.23;6.13;;;-0.50;99.90;;;;;;5091701;28;20200;-73
2021/04/13 04:34:35;;;;;;;6.45;5.28;;;-0.50;99.90;;;;;;5092201;28;20206;-71
2021/04/13 04:37:01;;;;;;;7.95;5.95;;;-0.50;99.90;;;;;;5091934;28;20229;-72
2021/04/13 04:39:30;;;;;;;6.65;6.05;;;-0.40;99.90;;;;;;5091610;28;20253;-73
2021/04/13 04:42:05;;;;;;;5.88;4.85;;;-0.40;99.90;;;;;;5092117;28;20211;-71
2021/04/13 04:44:31;;;;;;;7.50;5.32;;;-0.40;99.90;;;;;;5091881;28;20376;-71
2021/04/13 04:47:00;;;;;;;6.65;5.50;;;-0.40;99.90;;;;;;5091847;28;20211;-72
2021/04/13 04:49:39;;;;;;;8.27;5.40;;;-0.40;99.90;;;;;;5091083;28;20225;-71
2021/04/13 04:52:06;;;;;;;6.97;6.05;;;-0.40;99.90;;;;;;5120533;22;20225;-90
2021/04/13 04:54:32;;;;;;;6.80;5.80;;;-0.40;99.90;;;;;;5132623;27;20237;-91
2021/04/13 04:56:58;;;;;;;8.40;6.45;;;-0.40;99.90;;;;;;5137049;27;20205;-91
2021/04/13 04:59:25;;;;;;;6.97;5.43;;;-0.40;99.90;;;;;;5157892;27;20206;-92
2021/04/13 05:01:51;;;;;;;5.65;5.03;;;-0.40;99.90;;;;;;5155686;27;20202;-91
2021/04/13 05:04:18;;;;;;;6.32;5.72;;;-0.40;99.90;;;;;;5138526;27;20213;-91
2021/04/13 05:06:45;;;;;;;7.22;4.90;;;-0.40;99.90;;;;;;5136014;27;20198;-91
2021/04/13 05:09:11;;;;;;;6.90;4.88;;;-0.40;99.90;;;;;;5135739;27;20686;-90
2021/04/13 05:11:37;;;;;;;6.10;5.50;;;-0.40;99.90;;;;;;5136684;27;20274;-91
2021/04/13 05:14:03;;;;;;;6.90;5.90;;;-0.50;99.90;;;;;;5136775;27;20206;-91
2021/04/13 05:16:30;;;;;;;6.15;5.53;;;-0.40;99.90;;;;;;5115043;27;20568;-91
2021/04/13 05:18:56;;;;;;;6.20;5.60;;;-0.40;99.90;;;;;;5115671;28;20213;-91
2021/04/13 05:21:23;;;;;;;6.57;5.72;;;-0.40;99.90;;;;;;5115661;28;20201;-91
2021/04/13 05:23:49;;;;;;;6.88;6.15;;;-0.30;99.90;;;;;;5117054;28;20542;-90
2021/04/13 05:26:16;;;;;;;7.15;6.18;;;-0.20;99.90;;;;;;5119160;28;20207;-91
2021/04/13 05:28:42;;;;;;;7.38;6.07;;;-0.20;99.90;;;;;;5116316;28;20255;-90
2021/04/13 05:31:08;;;;;;;9.65;6.03;;;-0.20;99.90;;;;;;5115772;28;20209;-91
2021/04/13 05:33:35;;;;;;;6.55;5.70;;;-0.10;99.90;;;;;;5116218;28;20219;-91
2021/04/13 05:36:02;;;;;;;7.53;6.20;;;-0.10;99.90;;;;;;5114710;28;20248;-90
2021/04/13 05:38:32;;;;;;;8.90;6.57;;;0.00;99.90;;;;;;5115719;28;20210;-89
2021/04/13 05:41:00;;;;;;;13.75;6.00;;;0.10;99.90;;;;;;5117695;28;20218;-91
2021/04/13 05:43:28;;;;;;;11.63;7.00;;;0.20;99.90;;;;;;5124116;28;20271;-89
2021/04/13 05:45:59;;;;;;;8.10;6.53;;;0.30;99.90;;;;;;5116697;28;20241;-88
2021/04/13 05:48:26;;;;;;;10.05;7.05;;;0.40;99.90;;;;;;5115250;28;20199;-91
2021/04/13 05:50:52;;;;;;;8.15;6.97;;;0.50;99.90;;;;;;5114979;28;20203;-89
2021/04/13 05:53:19;;;;;;;8.63;6.68;;;0.60;99.90;;;;;;5114570;28;20223;-89
2021/04/13 05:55:47;;;;;;;8.07;7.13;;;0.70;99.90;;;;;;5118559;28;20219;-89
2021/04/13 05:58:17;;;;;;;8.52;7.38;;;0.80;99.90;;;;;;5115443;28;20199;-89
2021/04/13 06:00:45;;;;;;;10.07;7.25;;;0.90;99.90;;;;;;5115365;28;20247;-90
2021/04/13 06:03:14;;;;;;;7.32;6.63;;;1.00;99.90;;;;;;5117217;28;20242;-89
2021/04/13 06:05:40;;;;;;;12.63;7.55;;;1.10;99.90;;;;;;5116968;28;20199;-89
2021/04/13 06:08:10;;;;;;;9.65;7.82;;;1.10;99.90;;;;;;5119896;28;20204;-92
2021/04/13 06:10:36;;;;;;;10.43;6.65;;;1.20;99.90;;;;;;5116335;28;20660;-91
2021/04/13 06:13:04;;;;;;;10.57;7.60;;;1.30;99.90;;;;;;5116478;28;20223;-90
2021/04/13 06:15:32;;;;;;;8.82;7.35;;;1.40;99.90;;;;;;5118481;28;20602;-90
2021/04/13 06:17:59;;;;;;;9.18;7.00;;;1.50;99.90;;;;;;5118343;28;20279;-91
2021/04/13 06:20:30;;;;;;;9.25;8.00;;;1.70;99.90;;;;;;5117724;28;20217;-91
2021/04/13 06:22:58;;;;;;;8.73;7.82;;;1.90;99.90;;;;;;5119278;28;20294;-90
2021/04/13 06:25:26;;;;;;;8.20;7.32;;;2.00;99.90;;;;;;5116830;28;20315;-91
2021/04/13 06:27:53;;;;;;;8.13;7.35;;;2.20;99.90;;;;;;5116314;28;20209;-91
2021/04/13 06:30:25;;;;;;;9.05;7.53;;;2.30;99.90;;;;;;5113154;28;21020;-91
2021/04/13 06:32:54;;;;;;;9.40;8.23;;;2.40;99.90;;;;;;5114899;27;20226;-91
2021/04/13 06:35:24;;;;;;;9.27;7.72;;;2.40;99.90;;;;;;5114993;28;20649;-90
2021/04/13 06:37:53;;;;;;;8.77;7.55;;;2.60;99.90;;;;;;5136603;28;20187;-92
2021/04/13 06:40:36;;;;;;;8.27;7.47;;;2.60;99.90;;;;;;5121578;28;20206;-91
2021/04/13 06:43:16;;;;;;;8.25;7.45;;;2.70;99.90;;;;;;5111286;22;20311;-72
2021/04/13 06:45:52;;;;;;;8.48;7.57;;;2.80;99.90;;;;;;5099165;28;20186;-72
2021/04/13 06:48:48;;;;;;;8.80;7.82;;;2.90;99.90;;;;;;5087201;28;20227;-72
2021/04/13 06:51:20;;;;;;;8.82;7.70;;;3.10;99.90;;;;;;5099725;28;20198;-72
2021/04/13 06:54:02;;;;;;;9.98;7.05;;;3.30;99.90;;;;;;5107912;28;20195;-72
2021/04/13 06:57:07;;;;;;;8.70;7.80;;;3.40;99.90;;;;;;5098682;28;20256;-72
2021/04/13 06:59:59;;;;;;;6.85;6.25;;;3.70;99.90;;;;;;5088377;28;20272;-72
2021/04/13 07:02:31;;;;;;;10.35;6.72;;;4.10;99.90;;;;;;5088233;28;20203;-72
2021/04/13 07:05:01;;;;;;;8.38;7.53;;;4.40;99.90;;;;;;5088263;28;20204;-72
2021/04/13 07:07:34;;;;;;;9.48;8.35;;;4.60;99.90;;;;;;5094257;28;20200;-72
2021/04/13 07:10:06;;;;;;;9.55;8.40;;;4.80;99.90;;;;;;5099429;28;20203;-72
2021/04/13 07:12:39;;;;;;;8.90;7.95;;;5.00;99.90;;;;;;5091845;28;20204;-72
2021/04/13 07:15:12;;;;;;;9.52;8.38;;;5.20;99.90;;;;;;5092047;28;20256;-72
2021/04/13 07:17:46;;;;;;;9.00;8.02;;;5.40;99.90;;;;;;5107156;28;20207;-72
2021/04/13 07:20:14;;;;;;;8.20;7.22;;;5.60;99.90;;;;;;5101770;28;20210;-71
2021/04/13 07:22:44;;;;;;;11.27;9.10;;;5.70;99.90;;;;;;5087341;28;20203;-72
2021/04/13 07:25:15;;;;;;;9.75;8.75;;;5.90;99.90;;;;;;5105763;28;20688;-70
2021/04/13 07:27:46;;;;;;;9.30;8.30;;;6.00;99.90;;;;;;5087850;28;20336;-72
2021/04/13 07:30:20;;;;;;;7.90;7.13;;;6.10;99.90;;;;;;5094875;28;20567;-72
2021/04/13 07:32:47;;;;;;;7.85;6.80;;;6.40;99.90;;;;;;5106974;28;20203;-72
2021/04/13 07:35:17;;;;;;;7.32;6.70;;;6.40;99.90;;;;;;5093506;28;20268;-72
2021/04/13 07:37:45;;;;;;;7.55;6.85;;;6.50;99.80;;;;;;5087536;28;20613;-72
2021/04/13 07:40:14;;;;;;;8.88;7.72;;;6.80;99.90;;;;;;5092351;28;20594;-72
2021/04/13 07:42:45;;;;;;;10.75;8.57;;;6.80;99.00;;;;;;5093914;28;20581;-72
2021/04/13 07:45:31;;;;;;;8.60;7.70;;;7.00;99.00;;;;;;5091205;28;20195;-69
2021/04/13 07:48:18;;;;;;;7.70;7.05;;;7.30;99.60;;;;;;5107000;28;20310;-70
2021/04/13 07:50:53;;;;;;;8.02;7.20;;;7.60;98.10;;;;;;5085300;28;20235;-71
2021/04/13 07:53:31;;;;;;;8.57;7.80;;;7.80;98.00;;;;;;5107073;28;20202;-71
2021/04/13 07:56:06;;;;;;;7.38;6.60;;;8.00;97.20;;;;;;5092021;28;20226;-71
2021/04/13 07:58:39;;;;;;;7.90;6.57;;;8.20;96.40;;;;;;5085795;28;20234;-72
2021/04/13 08:01:09;;;;;;;8.52;7.60;;;8.20;94.90;;;;;;5106435;28;20199;-72
2021/04/13 08:03:37;;;;;;;8.80;7.72;;;8.30;95.60;;;;;;5098451;28;20674;-71
2021/04/13 08:06:25;;;;;;;8.00;7.03;;;8.30;95.00;;;;;;5097090;28;20199;-71
2021/04/13 08:09:11;;;;;;;7.40;6.30;;;8.30;95.40;;;;;;5078317;28;20215;-71
2021/04/13 08:11:37;;;;;;;6.72;6.03;;;8.00;94.50;;;;;;5085932;28;20606;-72
2021/04/13 08:14:16;;;;;;;6.55;5.95;;;7.60;94.60;;;;;;5086267;28;20199;-71
2021/04/13 08:16:42;;;;;;;8.82;7.38;;;7.40;94.80;;;;;;5087443;28;20225;-70
2021/04/13 08:19:17;;;;;;;7.53;6.82;;;7.20;96.20;;;;;;5102605;28;20223;-71
2021/04/13 08:21:43;;;;;;;8.73;7.93;;;7.10;96.60;;;;;;5077798;28;20199;-71
2021/04/13 08:24:33;;;;;;;8.55;7.75;;;7.10;97.50;;;;;;5088394;28;20204;-71
2021/04/13 08:27:21;;;;;;;9.35;8.45;;;7.10;98.00;;;;;;5090726;28;20220;-72
2021/04/13 08:29:56;;;;;;;8.80;7.90;;;7.30;97.80;;;;;;5097620;28;20226;-71
2021/04/13 08:35:32;;;;;;;8.20;7.40;;;7.40;98.50;;;;;;5094133;28;20230;-71
2021/04/13 08:38:21;;;;;;;6.32;5.78;;;7.30;98.00;;;;;;5087908;28;20224;-71
2021/04/13 08:41:02;;;;;;;5.85;5.40;;;7.40;97.80;;;;;;5091600;28;20203;-70
2021/04/13 08:43:40;;;;;;;4.47;4.07;;;7.20;96.80;;;;;;5091226;28;20571;-73
2021/04/13 08:46:17;;;;;;;5.10;3.97;;;7.00;95.90;;;;;;5091994;28;20666;-72
2021/04/13 08:48:48;;;;;;;4.45;4.05;;;6.70;95.80;;;;;;5091491;28;20230;-72
2021/04/13 08:51:20;;;;;;;5.72;5.22;;;6.40;96.80;;;;;;5091077;28;20579;-72
2021/04/13 08:54:01;;;;;;;6.53;5.95;;;6.30;97.20;;;;;;5091852;28;20773;-72
2021/04/13 08:56:29;;;;;;;6.90;6.20;;;6.10;98.10;;;;;;5091110;28;20276;-72
2021/04/13 08:58:58;;;;;;;6.47;5.78;;;5.90;97.40;;;;;;5091236;28;20219;-71
2021/04/13 09:01:30;;;;;;;8.30;7.60;;;5.60;98.20;;;;;;5090899;28;20200;-72
2021/04/13 09:03:56;;;;;;;34.75;17.98;;;5.60;98.40;;;;;;5091401;28;20294;-72
2021/04/13 09:06:31;;;;;;;14.05;11.88;;;5.70;99.30;;;;;;5091676;28;20593;-73
2021/04/13 09:09:05;;;;;;;11.02;9.60;;;5.90;99.70;;;;;;5090115;28;20313;-70
2021/04/13 09:11:45;;;;;;;12.73;9.27;;;6.40;99.00;;;;;;5090936;28;20282;-71
2021/04/13 09:14:24;;;;;;;8.93;8.07;;;7.60;97.90;;;;;;5090458;28;20202;-71
2021/04/13 09:16:57;;;;;;;8.95;8.05;;;9.20;96.60;;;;;;5091187;28;20202;-71
2021/04/13 09:19:30;;;;;;;8.02;7.35;;;10.20;93.70;;;;;;5090365;28;20592;-72
2021/04/13 09:22:04;;;;;;;8.00;7.30;;;10.90;90.80;;;;;;5091139;28;20204;-71
2021/04/13 09:24:39;;;;;;;8.02;7.22;;;10.90;89.50;;;;;;5091647;28;20268;-71
2021/04/13 09:27:30;;;;;;;7.88;7.18;;;10.70;91.00;;;;;;5090890;28;20391;-72
2021/04/13 09:30:08;;;;;;;9.70;7.55;;;10.80;91.00;;;;;;5090209;28;20203;-71
2021/04/13 09:32:40;;;;;;;8.75;7.45;;;10.80;87.50;;;;;;5090671;28;20710;-72
2021/04/13 09:35:30;;;;;;;8.77;7.88;;;10.40;87.70;;;;;;5090727;28;20218;-72
2021/04/13 09:38:11;;;;;;;8.38;7.47;;;9.80;90.00;;;;;;5090571;28;20220;-72
2021/04/13 09:40:45;;;;;;;8.88;7.78;;;9.40;90.50;;;;;;5090382;28;20253;-72
2021/04/13 09:43:25;;;;;;;7.55;6.85;;;9.60;91.30;;;;;;5090086;28;20207;-72
2021/04/13 09:46:00;;;;;;;8.93;7.70;;;10.40;84.70;;;;;;5090627;28;20195;-72
2021/04/13 09:49:11;;;;;;;8.75;7.53;;;10.40;85.60;;;;;;5090604;28;20690;-71
2021/04/13 09:51:52;;;;;;;8.10;6.63;;;10.00;86.00;;;;;;5055260;28;20206;-71
2021/04/13 09:54:28;;;;;;;7.38;6.78;;;9.60;86.40;;;;;;5091073;28;20206;-71
2021/04/13 09:57:36;;;;;;;8.23;7.43;;;9.40;87.10;;;;;;5090375;28;20256;-72
2021/04/13 10:00:23;;;;;;;7.07;6.10;;;9.50;85.30;;;;;;5069887;28;20200;-71
2021/04/13 10:03:17;;;;;;;6.93;6.32;;;10.00;83.00;;;;;;5069887;28;20235;-71
2021/04/13 10:05:47;;;;;;;6.40;5.80;;;10.30;84.30;;;;;;5070489;28;20293;-72
2021/04/13 10:08:21;;;;;;;8.55;6.35;;;10.60;80.40;;;;;;5069397;28;20224;-72
2021/04/13 10:11:05;;;;;;;6.57;5.97;;;11.20;80.20;;;;;;5089739;28;20200;-72
2021/04/13 10:14:04;;;;;;;6.75;6.15;;;12.10;79.10;;;;;;5090258;28;20610;-71
2021/04/13 10:16:34;;;;;;;6.88;5.47;;;12.90;76.30;;;;;;5076996;28;20257;-72
2021/04/13 10:19:38;;;;;;;7.65;6.00;;;13.70;75.80;;;;;;5089552;28;20246;-71
2021/04/13 10:22:36;;;;;;;5.90;5.40;;;13.80;73.60;;;;;;5063617;28;20211;-72
2021/04/13 10:25:34;;;;;;;5.80;5.30;;;14.40;74.50;;;;;;5089851;28;20202;-72
2021/04/13 10:28:51;;;;;;;6.97;6.30;;;14.50;70.90;;;;;;5090046;28;20481;-72
2021/04/13 10:32:02;;;;;;;7.37;6.00;;;13.70;70.50;;;;;;5089180;28;20853;-71
2021/04/13 10:35:12;;;;;;;6.00;5.50;;;12.60;70.80;;;;;;5089669;28;20465;-72
2021/04/13 10:38:04;;;;;;;8.52;5.75;;;11.60;70.60;;;;;;5089565;28;20457;-71
2021/04/13 10:40:57;;;;;;;8.82;5.95;;;10.70;70.60;;;;;;5089590;28;20204;-71
2021/04/13 10:43:43;;;;;;;7.45;6.65;;;10.00;72.70;;;;;;5089580;28;20211;-71
2021/04/13 10:46:23;;;;;;;6.68;6.07;;;9.60;75.00;;;;;;5088599;28;20199;-72
2021/04/13 10:49:53;;;;;;;6.72;6.13;;;9.50;79.20;;;;;;5089444;28;20234;-71
2021/04/13 10:52:48;;;;;;;5.25;4.82;;;10.50;80.40;;;;;;5056388;28;20203;-72
2021/04/13 10:55:30;;;;;;;6.13;5.53;;;12.70;69.90;;;;;;5089405;28;20277;-72
2021/04/13 10:58:24;;;;;;;6.50;5.90;;;13.30;69.20;;;;;;5089503;28;20227;-72
2021/04/13 11:01:20;;;;;;;6.13;5.63;;;13.40;68.00;;;;;;5088272;28;20457;-72
2021/04/13 11:04:29;;;;;;;6.00;5.37;;;13.40;67.40;;;;;;5088939;28;20457;-72
2021/04/13 11:07:45;;;;;;;6.37;5.77;;;13.80;69.00;;;;;;5089282;28;20461;-72
2021/04/13 11:10:41;;;;;;;5.60;5.10;;;15.50;63.70;;;;;;5062075;28;20952;-72
2021/04/13 11:13:32;;;;;;;5.73;4.87;;;16.70;63.10;;;;;;5080661;28;20453;-70
2021/04/13 11:16:19;;;;;;;5.40;4.90;;;17.60;60.30;;;;;;5089135;28;20852;-70
2021/04/13 11:19:26;;;;;;;5.57;5.00;;;18.50;56.00;;;;;;5089837;28;20492;-70
2021/04/13 11:22:16;;;;;;;4.90;4.40;;;19.10;55.40;;;;;;5089237;28;20839;-70
2021/04/13 11:25:06;;;;;;;4.90;4.50;;;19.70;53.90;;;;;;5088895;28;20457;-71
2021/04/13 11:28:21;;;;;;;5.50;5.00;;;20.00;55.60;;;;;;5088584;28;20836;-71
2021/04/13 11:31:15;;;;;;;4.47;4.13;;;20.00;53.20;;;;;;5089120;28;20457;-71
2021/04/13 11:34:10;;;;;;;4.80;4.40;;;20.40;53.20;;;;;;5089260;28;20461;-70
2021/04/13 11:36:48;;;;;;;4.37;4.03;;;19.90;50.30;;;;;;5082924;28;20481;-71
2021/04/13 11:39:23;;;;;;;4.90;4.47;;;18.10;50.50;;;;;;5087753;28;21019;-71
2021/04/13 11:42:13;;;;;;;5.00;4.50;;;15.90;53.20;;;;;;5089047;28;20501;-71
2021/04/13 11:44:46;;;;;;;4.83;4.43;;;14.50;55.00;;;;;;5089169;28;20457;-71
2021/04/13 11:47:20;;;;;;;4.77;4.37;;;14.80;57.50;;;;;;5089414;28;20494;-71
2021/04/13 11:49:56;;;;;;;4.10;3.80;;;16.00;55.00;;;;;;5088079;28;21017;-71
2021/04/13 11:52:32;;;;;;;5.17;4.53;;;17.20;54.90;;;;;;5088779;28;20476;-71
2021/04/13 11:54:59;;;;;;;5.20;4.77;;;18.10;52.50;;;;;;5088763;28;20849;-71
2021/04/13 11:57:27;;;;;;;4.63;4.23;;;18.80;53.00;;;;;;5088648;28;20976;-72
2021/04/13 12:00:30;;;;;;;5.27;4.77;;;19.40;50.30;;;;;;5088325;28;20458;-71
2021/04/13 12:03:24;;;;;;;5.00;4.43;;;19.20;50.00;;;;;;5087520;28;20469;-71
2021/04/13 12:05:52;;;;;;;5.40;4.90;;;18.90;49.70;;;;;;5088669;28;20827;-71
2021/04/13 12:08:44;;;;;;;5.27;4.77;;;19.10;51.50;;;;;;5088707;28;20478;-70
2021/04/13 12:11:13;;;;;;;4.87;4.47;;;19.10;53.40;;;;;;5090124;28;20476;-71
2021/04/13 12:13:41;;;;;;;5.30;4.80;;;19.10;52.40;;;;;;5092361;28;20503;-71
2021/04/13 12:16:09;;;;;;;4.47;4.07;;;19.60;53.00;;;;;;5092136;28;20481;-71
2021/04/13 12:18:50;;;;;;;4.93;4.53;;;19.70;52.00;;;;;;5093459;28;20473;-71
2021/04/13 12:21:42;;;;;;;5.40;4.90;;;18.20;50.60;;;;;;5112424;28;20489;-71
2021/04/13 12:24:42;;;;;;;5.80;5.30;;;16.30;54.10;;;;;;5112392;28;20461;-71
2021/04/13 12:27:47;;;;;;;5.67;5.20;;;14.80;55.90;;;;;;5111838;28;20488;-71
2021/04/13 12:30:44;;;;;;;5.27;4.77;;;13.40;56.50;;;;;;5112207;28;20456;-73
2021/04/13 12:33:26;;;;;;;5.70;5.10;;;13.50;58.90;;;;;;5112345;28;20460;-71
2021/04/13 12:35:56;;;;;;;5.87;5.27;;;15.00;58.60;;;;;;5112095;28;20484;-70
2021/04/13 12:38:49;;;;;;;5.83;5.20;;;15.30;56.20;;;;;;5113492;28;20480;-70
2021/04/13 12:41:22;;;;;;;5.93;5.40;;;15.40;58.00;;;;;;5104633;28;20568;-70
2021/04/13 12:43:50;;;;;;;5.20;4.77;;;16.20;57.50;;;;;;5110511;28;20468;-71
2021/04/13 12:46:26;;;;;;;5.07;4.60;;;16.90;55.90;;;;;;5091434;28;20554;-71
2021/04/13 12:48:55;;;;;;;4.40;4.00;;;17.70;53.50;;;;;;5091749;28;20503;-70
2021/04/13 12:51:29;;;;;;;4.23;3.93;;;18.30;53.50;;;;;;5090810;28;21070;-71
2021/04/13 12:54:09;;;;;;;4.53;4.17;;;18.30;51.50;;;;;;5091475;28;20464;-70
2021/04/13 12:56:35;;;;;;;5.10;4.60;;;17.50;52.20;;;;;;5091816;28;20485;-70
2021/04/13 12:59:07;;;;;;;4.70;4.30;;;17.30;52.00;;;;;;5091117;28;20484;-71
2021/04/13 13:01:36;;;;;;;4.80;4.40;;;16.60;52.60;;;;;;5091386;28;20480;-71
2021/04/13 13:04:08;;;;;;;4.50;4.10;;;16.10;53.90;;;;;;5091161;28;20465;-70
2021/04/13 13:06:36;;;;;;;4.03;3.60;;;15.90;52.80;;;;;;5092175;28;20457;-71
2021/04/13 13:09:05;;;;;;;4.70;4.03;;;15.50;52.20;;;;;;5091628;28;20935;-71
2021/04/13 13:11:32;;;;;;;5.60;4.33;;;15.50;51.50;;;;;;5091569;28;20457;-71
2021/04/13 13:14:01;;;;;;;4.57;4.17;;;15.90;52.80;;;;;;5091237;28;20525;-70
2021/04/13 13:16:28;;;;;;;4.30;3.90;;;16.60;53.00;;;;;;5090800;28;20512;-71
2021/04/13 13:18:57;;;;;;;5.30;4.80;;;17.00;49.60;;;;;;5091231;28;20483;-71
2021/04/13 13:21:25;;;;;;;5.00;4.60;;;16.80;52.70;;;;;;5090827;28;20548;-71
2021/04/13 13:23:55;;;;;;;4.10;3.50;;;16.80;54.50;;;;;;5090937;28;20457;-72
2021/04/13 13:26:23;;;;;;;5.40;3.80;;;16.80;52.20;;;;;;5088454;28;20507;-71
2021/04/13 13:28:49;;;;;;;4.73;4.23;;;15.30;52.30;;;;;;5094641;28;20511;-70
2021/04/13 13:31:24;;;;;;;4.43;3.80;;;14.30;54.40;;;;;;5099189;28;20544;-71
2021/04/13 13:33:51;;;;;;;6.63;4.00;;;13.20;55.30;;;;;;5095754;28;20460;-72
2021/04/13 13:36:17;;;;;;;4.60;4.20;;;12.40;57.50;;;;;;5094442;28;20492;-72